Time;durP1;ratioP1;P1;durP2;ratioP2;P2;SDS_P1;SDS_P2;PMS_P1;PMS_P2;Temp;Humidity;BMP_temperature;BMP_pressure;BME280_temperature;BME280_humidity;BME280_pressure;Samples;Min_cycle;Max_cycle;Signal;HPM_P1;HPM_P2
2021/07/27 00:01:18;;;;;;;6.97;5.85;;;;;;;20.94;67.50;100268.06;4863727;28;1126447;-77
2021/07/27 00:03:45;;;;;;;7.47;5.80;;;;;;;20.89;67.39;100257.34;4903024;28;113761;-68
2021/07/27 00:06:11;;;;;;;8.07;6.60;;;;;;;20.82;67.46;100259.84;4902295;28;98140;-68
2021/07/27 00:08:37;;;;;;;8.73;6.80;;;;;;;20.78;67.41;100264.41;4903608;28;98475;-78
2021/07/27 00:11:08;;;;;;;10.13;7.53;;;;;;;20.75;67.43;100265.06;4903473;28;98077;-77
2021/07/27 00:13:34;;;;;;;11.43;6.63;;;;;;;20.73;67.49;100270.91;4901331;28;98177;-77
2021/07/27 00:16:01;;;;;;;12.98;6.82;;;;;;;20.73;67.74;100279.13;4903071;28;98671;-78
2021/07/27 00:18:27;;;;;;;8.70;6.72;;;;;;;20.71;67.65;100284.16;4901705;28;99590;-68
2021/07/27 00:20:53;;;;;;;12.40;6.50;;;;;;;20.73;67.58;100292.03;4902751;28;117635;-68
2021/07/27 00:23:19;;;;;;;10.90;6.55;;;;;;;20.75;67.65;100301.50;4884581;28;127645;-78
2021/07/27 00:25:45;;;;;;;13.35;6.60;;;;;;;20.75;67.68;100295.19;4885199;28;105904;-77
2021/07/27 00:28:11;;;;;;;10.93;6.40;;;;;;;20.75;67.71;100292.47;4901575;28;99645;-78
2021/07/27 00:30:37;;;;;;;6.63;5.93;;;;;;;20.76;67.53;100294.88;4883851;28;118782;-68
2021/07/27 00:33:04;;;;;;;9.05;6.35;;;;;;;20.74;67.35;100299.88;4901176;28;98318;-77
2021/07/27 00:35:31;;;;;;;8.57;6.10;;;;;;;20.73;67.24;100300.22;4901163;28;125319;-68
2021/07/27 00:38:08;;;;;;;9.35;6.20;;;;;;;20.70;67.28;100292.69;4903048;28;98122;-68
2021/07/27 00:40:36;;;;;;;11.02;6.28;;;;;;;20.67;67.10;100296.09;4886457;28;98408;-68
2021/07/27 00:43:10;;;;;;;11.05;6.53;;;;;;;20.58;67.22;100294.25;4903286;28;98513;-77
2021/07/27 00:45:36;;;;;;;7.00;6.05;;;;;;;;;;4902435;28;115361;-68
2021/07/27 00:48:02;;;;;;;6.90;5.95;;;;;;;20.47;67.80;100297.72;4903021;28;98001;-77
2021/07/27 00:50:28;;;;;;;8.77;6.47;;;;;;;20.40;67.68;100302.97;4902797;28;97865;-69
2021/07/27 00:52:57;;;;;;;8.15;5.53;;;;;;;20.34;68.03;100305.91;4901172;28;98182;-68
2021/07/27 00:55:25;;;;;;;8.05;5.78;;;;;;;20.29;68.11;100302.59;4900598;28;100139;-68
2021/07/27 00:57:51;;;;;;;7.20;5.95;;;;;;;20.28;67.90;100317.41;4901445;28;97917;-69
2021/07/27 01:00:17;;;;;;;7.55;6.38;;;;;;;20.25;68.13;100309.88;4901877;28;115657;-68
2021/07/27 01:02:43;;;;;;;8.77;6.28;;;;;;;20.25;67.92;100313.41;4901831;28;99138;-77
2021/07/27 01:05:10;;;;;;;7.53;5.65;;;;;;;20.25;67.72;100307.13;4883156;28;99469;-77
2021/07/27 01:07:37;;;;;;;7.53;5.78;;;;;;;20.27;67.84;100299.38;4891874;28;113585;-77
2021/07/27 01:10:09;;;;;;;6.78;6.10;;;;;;;20.25;67.79;100297.00;4900547;28;115514;-77
2021/07/27 01:12:35;;;;;;;6.68;5.97;;;;;;;20.21;67.88;100287.06;4902380;28;106300;-77
2021/07/27 01:15:02;;;;;;;6.78;5.90;;;;;;;20.23;67.87;100298.44;4900689;28;98561;-77
2021/07/27 01:17:28;;;;;;;6.30;5.70;;;;;;;20.20;67.94;100294.47;4900073;28;98526;-78
2021/07/27 01:39:21;;;;;;;5.88;5.28;;;;;;;20.26;67.71;100284.09;4899977;28;97834;-77
2021/07/27 01:42:05;;;;;;;5.90;5.40;;;;;;;20.26;67.71;100287.63;4871082;28;97806;-77
2021/07/27 01:44:32;;;;;;;6.18;5.30;;;;;;;20.27;67.87;100285.69;4900303;28;98325;-68
2021/07/27 01:46:58;;;;;;;7.78;5.82;;;;;;;20.27;67.89;100283.75;4901157;28;98546;-77
2021/07/27 01:49:24;;;;;;;6.28;5.50;;;;;;;20.28;67.82;100284.56;4901629;28;98060;-68
2021/07/27 01:51:53;;;;;;;6.57;5.88;;;;;;;20.29;67.87;100291.66;4899795;28;97902;-68
2021/07/27 01:54:28;;;;;;;6.00;5.40;;;;;;;20.28;67.88;100284.56;4899902;28;97972;-77
2021/07/27 01:56:54;;;;;;;7.05;5.80;;;;;;;20.25;67.88;100283.31;4901682;28;99360;-69
2021/07/27 01:59:20;;;;;;;6.30;5.57;;;;;;;20.25;67.60;100285.25;4899310;28;126520;-77
2021/07/27 02:01:46;;;;;;;8.23;5.97;;;;;;;20.22;67.80;100291.38;4895746;28;117730;-69
2021/07/27 02:04:12;;;;;;;6.28;5.78;;;;;;;20.20;67.81;100294.47;4907707;28;97889;-78
2021/07/27 02:06:41;;;;;;;6.15;5.55;;;;;;;20.18;67.62;100282.25;4901105;28;119896;-68
2021/07/27 02:09:08;;;;;;;7.35;5.90;;;;;;;20.18;67.60;100290.47;4914721;28;98145;-77
2021/07/27 02:11:43;;;;;;;6.72;5.78;;;;;;;20.16;67.78;100282.59;4901822;28;98120;-77
2021/07/27 02:14:12;;;;;;;6.72;5.88;;;;;;;20.14;67.88;100284.06;4901177;28;98473;-77
2021/07/27 02:16:38;;;;;;;7.05;6.07;;;;;;;20.15;67.70;100278.25;4901627;28;98836;-76
2021/07/27 02:19:04;;;;;;;7.28;5.72;;;;;;;20.13;68.03;100282.47;4899634;28;97993;-69
2021/07/27 02:21:30;;;;;;;6.22;5.63;;;;;;;20.10;67.88;100278.44;4892543;28;97925;-69
2021/07/27 02:24:00;;;;;;;6.22;5.60;;;;;;;20.05;67.68;100278.66;4898480;28;127524;-77
2021/07/27 02:26:26;;;;;;;6.22;5.60;;;;;;;20.05;68.09;100282.19;4901754;28;105871;-77
2021/07/27 02:28:52;;;;;;;8.00;6.30;;;;;;;20.02;67.77;100276.59;4900940;28;98229;-69
2021/07/27 02:31:27;;;;;;;6.75;6.05;;;;;;;20.00;67.88;100278.84;4900755;28;97870;-68
2021/07/27 02:33:54;;;;;;;7.13;5.88;;;;;;;19.97;67.50;100290.47;4901212;28;98557;-69
2021/07/27 02:36:20;;;;;;;7.03;6.07;;;;;;;19.94;67.76;100291.16;4930949;28;97844;-77
2021/07/27 02:38:48;;;;;;;6.60;5.90;;;;;;;19.92;67.65;100279.72;4915324;28;115098;-69
2021/07/27 02:41:16;;;;;;;8.45;5.82;;;;;;;19.88;67.54;100271.38;4900956;28;117678;-77
2021/07/27 02:43:42;;;;;;;6.78;5.75;;;;;;;19.84;67.66;100270.47;4911931;28;98425;-69
2021/07/27 02:46:08;;;;;;;7.05;5.50;;;;;;;19.81;67.66;100271.16;4897470;28;127227;-77
2021/07/27 02:48:34;;;;;;;7.78;5.80;;;;;;;19.78;67.84;100280.00;4882039;28;121153;-69
2021/07/27 02:51:01;;;;;;;8.95;6.20;;;;;;;19.74;67.76;100285.34;4863998;28;97986;-77
2021/07/27 02:53:31;;;;;;;9.23;6.25;;;;;;;19.70;67.85;100291.81;4899687;28;97848;-77
2021/07/27 02:55:59;;;;;;;8.55;6.40;;;;;;;19.66;67.76;100283.47;4917882;28;99988;-76
2021/07/27 02:58:25;;;;;;;9.82;6.45;;;;;;;19.61;67.86;100287.22;4901883;28;98186;-69
2021/07/27 03:00:51;;;;;;;7.47;5.85;;;;;;;19.57;67.80;100285.41;4903441;28;97887;-77
2021/07/27 03:03:17;;;;;;;7.45;5.90;;;;;;;19.52;67.92;100289.16;4902623;28;126664;-69
2021/07/27 03:05:43;;;;;;;6.63;5.53;;;;;;;19.48;68.07;100285.47;4902228;28;127356;-77
2021/07/27 03:08:18;;;;;;;5.88;5.28;;;;;;;19.48;67.93;100290.16;4886109;28;99532;-69
2021/07/27 03:10:44;;;;;;;6.53;5.85;;;;;;;19.47;68.07;100288.56;4887627;28;98091;-78
2021/07/27 03:13:10;;;;;;;7.97;5.57;;;;;;;19.46;68.46;100282.28;4902900;28;114394;-77
2021/07/27 03:15:36;;;;;;;6.38;5.50;;;;;;;19.47;68.29;100294.03;4903423;28;126148;-77
2021/07/27 03:18:02;;;;;;;7.68;5.28;;;;;;;19.47;68.42;100288.56;4884510;28;125831;-68
2021/07/27 03:20:29;;;;;;;7.00;5.43;;;;;;;19.46;68.53;100293.22;4903405;28;97850;-69
2021/07/27 03:22:56;;;;;;;7.90;5.70;;;;;;;19.45;68.14;100293.53;4884996;28;126925;-77
2021/07/27 03:25:22;;;;;;;6.97;5.40;;;;;;;19.44;68.34;100295.47;4902399;28;115752;-77
2021/07/27 03:27:50;;;;;;;6.68;5.47;;;;;;;19.44;68.33;100291.94;4903723;28;97883;-77
2021/07/27 03:30:17;;;;;;;6.55;5.80;;;;;;;19.43;68.26;100284.88;4903668;28;97969;-69
2021/07/27 03:32:47;;;;;;;7.70;5.70;;;;;;;19.43;68.19;100288.41;4901890;28;98379;-77
2021/07/27 03:35:20;;;;;;;7.28;5.60;;;;;;;19.43;68.32;100295.81;4901435;28;110656;-77
2021/07/27 03:37:46;;;;;;;6.45;5.28;;;;;;;19.41;68.32;100304.31;4902374;28;98777;-68
2021/07/27 03:40:13;;;;;;;7.00;5.30;;;;;;;19.40;68.26;100291.81;4901104;28;116980;-69
2021/07/27 03:42:39;;;;;;;7.13;5.70;;;;;;;19.40;68.37;100297.25;4884787;28;99369;-69
2021/07/27 03:45:06;;;;;;;10.05;5.75;;;;;;;19.38;68.41;100297.59;4901784;28;98581;-77
2021/07/27 03:47:32;;;;;;;7.10;5.63;;;;;;;19.36;68.32;100302.59;4900695;28;98577;-77
2021/07/27 03:49:58;;;;;;;6.68;5.68;;;;;;;19.36;68.29;100307.25;4885680;28;98069;-69
2021/07/27 03:52:24;;;;;;;7.05;5.20;;;;;;;19.35;68.41;100313.84;4903014;28;99120;-77
2021/07/27 03:54:51;;;;;;;6.22;5.63;;;;;;;19.33;68.33;100308.69;4902179;28;127324;-77
2021/07/27 03:57:17;;;;;;;6.95;5.50;;;;;;;19.33;68.33;100313.38;4903616;28;98373;-69
2021/07/27 03:59:43;;;;;;;7.65;5.38;;;;;;;19.32;68.34;100317.25;4901216;28;97929;-77
2021/07/27 04:02:09;;;;;;;8.75;5.93;;;;;;;19.33;67.99;100335.22;4901954;28;126663;-76
2021/07/27 04:04:38;;;;;;;7.90;5.28;;;;;;;19.29;68.08;100326.88;4901461;28;126912;-77
2021/07/27 04:07:04;;;;;;;6.32;5.32;;;;;;;19.33;68.27;100329.78;4902126;28;97948;-69
2021/07/27 04:09:30;;;;;;;6.65;5.70;;;;;;;19.33;68.28;100325.09;4852542;28;116811;-69
2021/07/27 04:11:56;;;;;;;6.13;5.30;;;;;;;19.33;68.42;100329.78;4902845;28;98809;-76
2021/07/27 04:14:23;;;;;;;7.07;5.20;;;;;;;19.35;68.86;100338.44;4901018;28;120228;-76
2021/07/27 04:16:49;;;;;;;5.80;5.22;;;;;;;19.39;68.49;100342.13;4884699;28;119374;-77
2021/07/27 04:19:15;;;;;;;6.55;5.35;;;;;;;19.43;68.57;100340.34;4902955;28;117750;-77
2021/07/27 04:21:44;;;;;;;6.70;5.05;;;;;;;19.46;68.37;100339.69;4902350;28;122385;-77
2021/07/27 04:24:10;;;;;;;6.22;5.07;;;;;;;19.53;68.50;100352.81;4883860;28;126727;-76
2021/07/27 04:26:36;;;;;;;8.27;5.25;;;;;;;19.59;68.34;100356.97;4901632;28;125170;-76
2021/07/27 04:29:03;;;;;;;7.50;5.35;;;;;;;19.64;68.15;100354.06;4884713;28;116349;-77
2021/07/27 04:31:30;;;;;;;7.82;5.22;;;;;;;19.69;67.92;100356.63;4901313;28;127933;-69
2021/07/27 04:33:56;;;;;;;6.35;5.10;;;;;;;19.74;68.25;100361.09;4903054;28;98991;-69
2021/07/27 04:36:22;;;;;;;7.72;5.20;;;;;;;19.78;68.30;100371.03;4902661;28;101392;-77
2021/07/27 04:38:48;;;;;;;6.20;5.35;;;;;;;19.84;67.94;100371.63;4902362;28;118368;-77
2021/07/27 04:41:14;;;;;;;7.32;4.97;;;;;;;19.90;68.36;100358.59;4902518;28;98850;-69
2021/07/27 04:43:40;;;;;;;6.53;4.90;;;;;;;19.95;68.14;100359.19;4902869;28;98042;-69
2021/07/27 04:46:07;;;;;;;8.88;5.10;;;;;;;20.00;67.78;100358.19;4900746;28;98054;-76
2021/07/27 04:48:33;;;;;;;7.78;4.90;;;;;;;20.06;67.97;100363.13;4869072;28;97934;-76
2021/07/27 04:50:59;;;;;;;8.10;4.60;;;;;;;20.13;67.50;100359.06;4884461;28;97934;-69
2021/07/27 04:53:26;;;;;;;7.43;4.70;;;;;;;20.16;67.51;100363.84;4902254;28;99081;-69
2021/07/27 04:55:53;;;;;;;6.80;5.07;;;;;;;20.21;67.31;100361.72;4901097;28;98118;-69
2021/07/27 04:58:19;;;;;;;7.30;4.93;;;;;;;20.25;67.36;100362.66;4903150;28;97819;-70
2021/07/27 05:00:45;;;;;;;5.60;4.47;;;;;;;20.31;67.21;100355.84;4900622;28;114523;-77
2021/07/27 05:03:11;;;;;;;6.60;4.80;;;;;;;20.38;67.25;100374.47;4883785;28;99041;-70
2021/07/27 05:05:37;;;;;;;6.95;4.70;;;;;;;20.45;66.53;100363.78;4901539;28;103823;-70
2021/07/27 05:08:03;;;;;;;6.82;4.70;;;;;;;20.53;66.64;100376.63;4902491;28;105429;-70
2021/07/27 05:10:30;;;;;;;6.28;4.20;;;;;;;20.64;66.41;100371.53;4900539;28;116462;-70
2021/07/27 05:12:57;;;;;;;7.20;4.32;;;;;;;20.79;66.15;100370.09;4901844;28;127785;-70
2021/07/27 05:15:23;;;;;;;6.18;4.20;;;;;;;20.95;65.84;100371.03;4901935;28;98041;-77
2021/07/27 05:17:55;;;;;;;7.07;4.45;;;;;;;21.09;65.50;100376.19;4900679;28;102458;-77
2021/07/27 05:20:22;;;;;;;7.43;4.65;;;;;;;21.27;65.16;100379.53;4915888;28;116468;-78
2021/07/27 05:22:48;;;;;;;5.20;4.45;;;;;;;21.42;64.52;100378.91;4883442;28;99868;-70
2021/07/27 05:25:17;;;;;;;5.25;4.57;;;;;;;21.58;64.23;100379.00;4899846;28;126407;-70
2021/07/27 05:27:44;;;;;;;5.95;4.18;;;;;;;21.75;63.68;100387.00;4884093;28;108712;-77
2021/07/27 05:30:12;;;;;;;7.55;4.13;;;;;;;21.93;62.93;100389.47;4901778;28;97830;-70
2021/07/27 05:32:38;;;;;;;6.85;4.20;;;;;;;22.10;63.12;100391.19;4902229;28;99368;-77
2021/07/27 05:35:05;;;;;;;5.05;3.97;;;;;;;22.27;62.68;100402.69;4850830;28;127010;-70
2021/07/27 05:37:31;;;;;;;5.15;3.63;;;;;;;22.45;62.14;100396.94;4902097;28;98151;-70
2021/07/27 05:39:57;;;;;;;7.10;4.00;;;;;;;22.62;61.77;100404.88;4900807;28;128103;-77
2021/07/27 05:42:23;;;;;;;4.38;3.58;;;;;;;22.77;60.96;100398.63;4900964;28;126920;-71
2021/07/27 05:44:49;;;;;;;5.72;3.88;;;;;;;22.94;60.99;100392.03;4899301;28;127945;-70
2021/07/27 05:47:16;;;;;;;5.50;3.58;;;;;;;23.12;60.34;100399.94;4899709;28;117611;-70
2021/07/27 05:49:42;;;;;;;4.78;3.40;;;;;;;23.27;59.73;100399.16;4900839;28;127747;-71
2021/07/27 05:52:11;;;;;;;5.00;3.67;;;;;;;23.46;59.33;100396.50;4899023;28;128203;-70
2021/07/27 05:54:38;;;;;;;4.25;3.33;;;;;;;23.65;58.55;100397.72;4900341;28;98139;-77
2021/07/27 05:57:08;;;;;;;7.15;3.42;;;;;;;23.84;58.13;100408.00;4901199;28;100837;-78
2021/07/27 05:59:34;;;;;;;3.80;3.28;;;;;;;24.04;57.73;100406.88;4899248;28;117512;-70
2021/07/27 06:02:00;;;;;;;5.30;3.55;;;;;;;24.27;57.31;100400.69;4901643;28;99112;-77
2021/07/27 06:04:26;;;;;;;4.78;3.38;;;;;;;24.51;56.68;100399.63;4864944;28;126954;-78
2021/07/27 06:06:52;;;;;;;8.38;3.30;;;;;;;24.79;56.17;100399.41;4899699;28;100108;-78
2021/07/27 06:09:20;;;;;;;4.38;3.28;;;;;;;25.65;54.25;100393.41;4901237;28;98751;-70
2021/07/27 06:11:46;;;;;;;5.15;3.22;;;;;;;27.86;49.16;100406.97;4901438;28;99177;-78
2021/07/27 06:14:12;;;;;;;4.57;2.80;;;;;;;28.62;47.35;100417.25;4900579;28;125922;-79
2021/07/27 06:16:39;;;;;;;6.03;3.20;;;;;;;28.95;47.29;100412.56;4900029;28;119615;-70
2021/07/27 06:19:08;;;;;;;3.58;2.88;;;;;;;29.60;47.59;100410.69;4883218;28;98826;-70
2021/07/27 06:21:40;;;;;;;4.57;2.90;;;;;;;30.63;44.09;100406.81;4898971;28;98677;-70
2021/07/27 06:24:07;;;;;;;4.72;3.20;;;;;;;31.95;40.94;100416.97;4901452;28;98262;-79
2021/07/27 06:26:33;;;;;;;4.75;3.17;;;;;;;32.13;40.51;100411.19;4883489;28;98150;-70
2021/07/27 06:29:01;;;;;;;4.72;2.80;;;;;;;32.44;39.69;100412.03;4899186;28;98937;-78
2021/07/27 06:31:27;;;;;;;4.55;2.92;;;;;;;33.32;38.39;100418.75;4903126;28;98440;-70
2021/07/27 06:33:53;;;;;;;3.88;2.83;;;;;;;34.48;35.75;100416.22;4902943;28;126505;-70
2021/07/27 06:36:19;;;;;;;5.70;3.08;;;;;;;34.30;36.03;100405.41;4902535;28;98075;-70
2021/07/27 06:38:45;;;;;;;3.22;2.63;;;;;;;34.93;35.28;100408.03;4866749;28;114178;-78
2021/07/27 06:41:11;;;;;;;4.95;2.75;;;;;;;36.07;32.64;100407.97;4883644;28;98483;-70
2021/07/27 06:43:39;;;;;;;2.90;2.70;;;;;;;35.55;33.85;100391.34;4901238;28;123431;-69
2021/07/27 06:46:05;;;;;;;5.32;2.75;;;;;;;35.51;33.21;100387.88;4904348;28;97892;-78
2021/07/27 06:48:31;;;;;;;2.92;2.22;;;;;;;35.62;33.57;100400.38;4904406;28;98684;-78
2021/07/27 06:50:57;;;;;;;3.47;2.70;;;;;;;35.86;33.30;100389.69;4903337;28;98616;-78
2021/07/27 06:53:23;;;;;;;4.55;2.78;;;;;;;37.07;30.87;100392.97;4901717;28;127778;-78
2021/07/27 06:55:49;;;;;;;4.45;2.63;;;;;;;36.98;30.90;100392.84;4886848;28;98105;-70
2021/07/27 06:58:15;;;;;;;4.63;2.75;;;;;;;36.73;31.26;100391.59;4884083;28;127849;-78
2021/07/27 07:00:41;;;;;;;2.95;2.60;;;;;;;36.26;31.43;100400.59;4903160;28;115042;-70
2021/07/27 07:03:08;;;;;;;3.60;2.60;;;;;;;35.89;31.91;100390.84;4900982;28;127495;-70
2021/07/27 07:05:34;;;;;;;3.63;2.33;;;;;;;35.61;31.72;100392.41;4901379;28;104366;-79
2021/07/27 07:08:01;;;;;;;3.78;2.78;;;;;;;35.30;32.35;100391.97;4902474;28;98725;-79
2021/07/27 07:10:27;;;;;;;3.97;2.78;;;;;;;35.21;32.29;100389.00;4903824;28;98010;-70
2021/07/27 07:12:54;;;;;;;5.07;2.47;;;;;;;35.08;32.40;100391.72;4903722;28;97880;-78
2021/07/27 07:15:20;;;;;;;3.65;2.50;;;;;;;34.97;32.23;100396.75;4903757;28;98346;-69
2021/07/27 07:17:46;;;;;;;4.10;2.72;;;;;;;34.90;32.46;100392.91;4903922;28;98856;-78
2021/07/27 07:20:12;;;;;;;2.72;2.40;;;;;;;34.91;32.68;100393.69;4869791;28;100975;-70
2021/07/27 07:22:38;;;;;;;3.97;2.30;;;;;;;34.99;32.71;100399.94;4885350;28;112046;-78
2021/07/27 07:25:05;;;;;;;3.95;2.63;;;;;;;35.16;32.99;100405.09;4900921;28;117398;-69
2021/07/27 07:27:31;;;;;;;3.80;2.17;;;;;;;35.36;32.17;100395.81;4900636;28;117792;-69
2021/07/27 07:29:57;;;;;;;3.25;2.30;;;;;;;35.57;31.83;100405.72;4901489;28;127147;-78
2021/07/27 07:32:24;;;;;;;3.08;2.45;;;;;;;35.68;31.19;100400.59;4902308;28;97966;-78
2021/07/27 07:34:50;;;;;;;4.28;2.50;;;;;;;35.77;31.08;100406.38;4900533;28;118501;-69
2021/07/27 07:37:16;;;;;;;4.07;2.42;;;;;;;35.84;30.80;100400.59;4902116;28;128674;-69
2021/07/27 07:39:42;;;;;;;4.40;2.60;;;;;;;36.00;30.47;100402.56;4900560;28;127222;-78
2021/07/27 07:42:08;;;;;;;3.78;2.47;;;;;;;36.10;30.43;100404.28;4880375;28;108719;-69
2021/07/27 07:44:37;;;;;;;2.92;2.30;;;;;;;36.26;30.65;100397.03;4881777;28;108571;-78
2021/07/27 07:47:03;;;;;;;4.53;2.30;;;;;;;36.47;30.41;100393.63;4895569;28;99436;-69
2021/07/27 07:49:30;;;;;;;3.40;2.70;;;;;;;36.65;29.61;100383.84;4933086;28;110984;-77
2021/07/27 07:51:56;;;;;;;2.80;2.20;;;;;;;36.78;29.73;100390.25;4902512;28;114433;-77
2021/07/27 07:54:24;;;;;;;4.78;2.33;;;;;;;36.94;29.59;100392.19;4901702;28;98001;-69
2021/07/27 07:56:51;;;;;;;2.97;2.35;;;;;;;37.14;29.39;100394.72;4901841;28;98604;-78
2021/07/27 07:59:17;;;;;;;4.57;2.13;;;;;;;37.48;28.87;100385.59;4903034;28;98545;-76
2021/07/27 08:01:45;;;;;;;3.42;2.30;;;;;;;37.90;28.01;100386.13;4900167;28;127558;-78
2021/07/27 08:04:12;;;;;;;4.70;2.47;;;;;;;38.38;27.57;100391.59;4901813;28;98096;-77
2021/07/27 08:06:38;;;;;;;2.22;2.00;;;;;;;38.84;27.20;100389.81;4902954;28;97864;-77
2021/07/27 08:09:04;;;;;;;3.58;2.33;;;;;;;39.25;26.23;100382.09;4901062;28;98739;-77
2021/07/27 08:11:31;;;;;;;6.43;2.65;;;;;;;39.74;26.37;100379.19;4902716;28;98632;-68
2021/07/27 08:13:58;;;;;;;3.42;2.60;;;;;;;40.22;25.22;100381.47;4902212;28;117428;-77
2021/07/27 08:16:24;;;;;;;3.75;2.53;;;;;;;40.60;24.96;100383.72;4902251;28;98887;-68
2021/07/27 08:18:50;;;;;;;3.53;2.22;;;;;;;41.15;24.26;100383.47;4900699;28;116216;-68
2021/07/27 08:21:16;;;;;;;3.42;2.33;;;;;;;41.63;23.72;100379.81;4902784;28;114473;-68
2021/07/27 08:23:48;;;;;;;3.13;2.38;;;;;;;42.14;22.81;100382.34;4901680;28;117860;-68
2021/07/27 08:26:14;;;;;;;2.60;2.40;;;;;;;42.68;22.48;100372.94;4902551;28;98739;-68
2021/07/27 08:28:42;;;;;;;2.67;2.25;;;;;;;43.22;21.60;100365.72;4884509;28;100499;-68
2021/07/27 08:31:08;;;;;;;3.15;2.28;;;;;;;43.73;21.10;100361.41;4902495;28;98692;-77
2021/07/27 08:33:34;;;;;;;4.72;3.90;;;;;;;44.08;21.28;100357.66;4902981;28;105512;-68
2021/07/27 08:36:00;;;;;;;3.78;2.17;;;;;;;44.54;20.21;100356.75;4902074;28;98959;-77
2021/07/27 08:38:27;;;;;;;2.30;2.10;;;;;;;44.98;19.47;100355.47;4901467;28;126068;-77
2021/07/27 08:40:57;;;;;;;2.33;2.10;;;;;;;45.31;19.02;100358.44;4901480;28;126722;-77
2021/07/27 08:43:23;;;;;;;3.55;2.35;;;;;;;45.60;18.80;100364.28;4901565;28;98034;-77
2021/07/27 08:45:51;;;;;;;2.45;2.13;;;;;;;45.18;19.09;100352.47;4902555;28;98338;-65
2021/07/27 08:48:17;;;;;;;3.15;2.50;;;;;;;45.44;18.93;100358.03;4900655;28;98444;-75
2021/07/27 08:50:44;;;;;;;3.42;2.60;;;;;;;45.74;18.78;100351.88;4902565;28;110409;-75
2021/07/27 08:53:11;;;;;;;2.65;2.45;;;;;;;46.23;18.10;100361.78;4902044;28;97896;-66
2021/07/27 08:55:37;;;;;;;2.60;2.38;;;;;;;46.78;17.50;100364.31;4902618;28;98772;-74
2021/07/27 08:58:03;;;;;;;11.57;3.75;;;;;;;47.01;17.89;100357.28;4899495;28;128209;-66
2021/07/27 09:00:31;;;;;;;3.92;2.50;;;;;;;47.42;17.14;100359.44;4900824;28;127854;-65
2021/07/27 09:03:14;;;;;;;4.05;2.60;;;;;;;48.04;17.51;100356.94;4902100;28;98146;-65
2021/07/27 09:05:40;;;;;;;2.85;2.33;;;;;;;48.33;16.91;100355.41;4900273;28;98881;-66
2021/07/27 09:08:10;;;;;;;3.88;2.40;;;;;;;48.63;16.46;100334.59;4902341;28;99059;-66
2021/07/27 09:10:40;;;;;;;7.43;3.83;;;;;;;48.66;17.15;100340.03;4899784;28;98133;-66
2021/07/27 09:13:09;;;;;;;3.50;2.30;;;;;;;48.61;17.30;100326.56;4901978;28;105606;-76
2021/07/27 09:15:37;;;;;;;3.63;2.20;;;;;;;48.70;17.90;100341.78;4899945;28;99442;-64
2021/07/27 09:18:19;;;;;;;2.17;1.95;;;;;;;48.63;17.79;100332.53;4902355;28;110496;-71
2021/07/27 09:20:49;;;;;;;2.67;1.98;;;;;;;48.66;17.89;100324.97;4902706;28;98398;-63
2021/07/27 09:23:24;;;;;;;2.70;1.90;;;;;;;48.78;17.33;100329.25;4901510;28;103973;-63
2021/07/27 09:25:52;;;;;;;2.55;1.90;;;;;;;47.19;17.88;100331.00;4900269;28;116754;-71
2021/07/27 09:28:19;;;;;;;2.65;1.85;;;;;;;44.15;20.24;100316.69;4901574;28;99139;-62
2021/07/27 09:30:46;;;;;;;2.20;1.88;;;;;;;43.74;19.76;100320.41;4903064;28;97870;-63
2021/07/27 09:33:14;;;;;;;2.38;1.80;;;;;;;42.48;20.43;100319.84;4902302;28;97928;-62
2021/07/27 09:35:40;;;;;;;2.15;1.95;;;;;;;42.24;21.24;100323.59;4899316;28;99259;-72
2021/07/27 09:38:14;;;;;;;2.22;1.75;;;;;;;42.77;21.06;100330.34;4900025;28;98315;-63
2021/07/27 09:40:54;;;;;;;3.03;2.00;;;;;;;42.96;20.55;100325.16;4899499;28;111317;-72
2021/07/27 09:43:22;;;;;;;3.03;1.90;;;;;;;43.99;19.54;100320.94;4902198;28;98055;-63
2021/07/27 09:45:50;;;;;;;1.77;1.45;;;;;;;44.12;19.11;100324.13;4901110;28;98434;-63
2021/07/27 09:48:16;;;;;;;2.30;1.75;;;;;;;44.71;18.40;100325.63;4900354;28;98600;-72
2021/07/27 09:50:46;;;;;;;2.33;1.98;;;;;;;45.54;17.10;100330.09;4899400;28;97961;-63
2021/07/27 09:53:12;;;;;;;2.38;2.00;;;;;;;45.96;16.72;100328.38;4901288;28;98244;-63
2021/07/27 09:55:38;;;;;;;3.13;1.75;;;;;;;45.58;16.34;100327.00;4882847;28;98012;-71
2021/07/27 09:58:05;;;;;;;2.83;1.58;;;;;;;44.71;17.29;100312.19;4901561;28;98421;-63
2021/07/27 10:00:31;;;;;;;2.30;1.80;;;;;;;44.88;17.40;100308.66;4901363;28;98218;-71
2021/07/27 10:02:57;;;;;;;2.05;1.80;;;;;;;45.92;16.44;100316.47;4899596;28;105501;-72
2021/07/27 10:05:24;;;;;;;2.90;1.65;;;;;;;45.47;16.12;100320.00;4903859;28;128075;-62
2021/07/27 10:07:57;;;;;;;1.65;1.50;;;;;;;46.12;16.16;100313.34;4905434;28;98442;-63
2021/07/27 10:10:40;;;;;;;2.20;1.50;;;;;;;44.57;17.67;100313.91;4903100;28;98085;-71
2021/07/27 10:13:11;;;;;;;1.80;1.70;;;;;;;45.17;16.62;100313.97;4886223;28;97845;-62
2021/07/27 10:15:55;;;;;;;1.98;1.63;;;;;;;45.42;17.04;100309.38;4917872;28;98584;-62
2021/07/27 10:18:33;;;;;;;1.95;1.75;;;;;;;45.71;16.65;100319.53;4903055;28;98668;-72
2021/07/27 10:21:34;;;;;;;3.47;1.63;;;;;;;45.11;17.87;100315.22;4886807;28;104789;-62
2021/07/27 10:24:25;;;;;;;2.10;1.88;;;;;;;45.98;16.70;100309.47;4846234;28;116358;-72
2021/07/27 10:26:51;;;;;;;2.53;1.70;;;;;;;46.25;16.45;100318.53;4902032;28;98918;-72
2021/07/27 10:29:29;;;;;;;1.90;1.80;;;;;;;46.32;16.92;100305.84;4901815;28;106920;-72
2021/07/27 10:31:55;;;;;;;2.33;1.67;;;;;;;46.54;15.87;100308.66;4904975;28;98643;-72
2021/07/27 10:34:32;;;;;;;1.60;1.50;;;;;;;46.94;16.08;100312.97;4903109;28;97920;-62
2021/07/27 10:37:12;;;;;;;2.65;1.63;;;;;;;46.90;16.68;100308.81;4904704;28;98657;-62
2021/07/27 10:39:55;;;;;;;1.45;1.30;;;;;;;47.38;15.90;100314.06;4904872;28;99254;-62
2021/07/27 10:42:22;;;;;;;1.75;1.60;;;;;;;46.59;15.11;100310.75;4905269;28;97904;-62
2021/07/27 10:44:49;;;;;;;1.60;1.50;;;;;;;47.13;15.55;100312.38;4904849;28;97850;-63
2021/07/27 10:47:22;;;;;;;1.60;1.50;;;;;;;46.93;15.28;100304.94;4904018;28;98866;-63
2021/07/27 10:50:06;;;;;;;2.20;1.42;;;;;;;45.24;16.65;100301.34;4904352;28;99256;-63
2021/07/27 10:52:33;;;;;;;1.55;1.10;;;;;;;43.80;17.59;100303.47;4904267;28;97979;-63
2021/07/27 10:55:00;;;;;;;1.75;1.40;;;;;;;43.76;17.59;100300.06;4903739;28;98241;-63
2021/07/27 10:57:37;;;;;;;2.17;1.42;;;;;;;44.29;17.45;100310.88;4886270;28;98579;-63
2021/07/27 11:00:05;;;;;;;2.20;1.80;;;;;;;42.92;18.24;100304.75;4903973;28;98687;-73
2021/07/27 11:02:31;;;;;;;1.75;1.52;;;;;;;43.72;17.59;100308.81;4904009;28;98194;-63
2021/07/27 11:04:57;;;;;;;1.88;1.40;;;;;;;43.04;17.90;100304.41;4903634;28;118102;-62
2021/07/27 11:07:25;;;;;;;2.00;1.40;;;;;;;42.47;18.45;100299.25;4903644;28;99394;-73
2021/07/27 11:09:58;;;;;;;1.90;1.45;;;;;;;41.58;19.55;100299.28;4904066;28;98822;-63
2021/07/27 11:12:42;;;;;;;2.83;1.52;;;;;;;40.17;20.59;100289.00;4903707;28;98638;-63
2021/07/27 11:15:19;;;;;;;2.08;1.38;;;;;;;39.67;20.98;100294.09;4902701;28;118861;-73
2021/07/27 11:17:47;;;;;;;1.58;1.40;;;;;;;41.08;19.90;100313.19;4903491;28;98574;-73
2021/07/27 11:20:19;;;;;;;1.95;1.40;;;;;;;42.05;19.32;100308.06;4902235;28;98247;-72
2021/07/27 11:22:51;;;;;;;2.55;1.75;;;;;;;42.27;19.18;100302.81;4904259;28;97836;-63
2021/07/27 11:25:21;;;;;;;1.67;1.48;;;;;;;41.89;19.86;100300.88;4901845;28;98056;-72
2021/07/27 11:27:47;;;;;;;2.60;1.40;;;;;;;41.84;19.60;100296.66;4904030;28;98337;-63
2021/07/27 11:30:14;;;;;;;2.75;1.58;;;;;;;40.91;20.73;100292.22;4903218;28;98647;-72
2021/07/27 11:32:45;;;;;;;2.40;1.40;;;;;;;40.10;20.95;100294.97;4885966;28;98220;-72
2021/07/27 11:35:26;;;;;;;3.53;1.50;;;;;;;39.58;21.95;100294.91;4903739;28;97918;-72
2021/07/27 11:38:03;;;;;;;3.15;1.77;;;;;;;39.67;22.18;100291.28;4903026;28;98752;-63
2021/07/27 11:40:29;;;;;;;1.60;1.45;;;;;;;39.55;22.22;100300.69;4903511;28;113078;-72
2021/07/27 11:43:13;;;;;;;2.03;1.70;;;;;;;39.35;22.26;100292.72;4903205;28;98581;-72
2021/07/27 11:45:41;;;;;;;3.90;1.75;;;;;;;39.42;22.13;100295.22;4902865;28;98115;-72